createdAt,value
2019-05-16T00:02:01.040Z,6.60
2019-05-16T00:04:30.916Z,6.61
2019-05-16T00:07:02.740Z,6.68
2019-05-16T00:09:38.002Z,6.62
2019-05-16T00:12:08.929Z,6.64
2019-05-16T00:14:41.751Z,6.63
2019-05-16T00:17:13.326Z,6.64
2019-05-16T00:19:44.665Z,6.65
2019-05-16T00:22:18.195Z,6.61
2019-05-16T00:24:49.151Z,6.57
2019-05-16T00:27:20.466Z,6.60
2019-05-16T00:29:52.342Z,6.62
2019-05-16T00:32:28.168Z,6.63
2019-05-16T00:34:59.957Z,6.57
2019-05-16T00:37:41.290Z,6.57
2019-05-16T00:40:18.828Z,6.57
2019-05-16T00:42:50.203Z,6.61
2019-05-16T00:45:25.546Z,6.54
2019-05-16T00:47:58.542Z,6.62
2019-05-16T00:50:30.334Z,6.61
2019-05-16T00:53:01.829Z,6.64
2019-05-16T00:55:33.561Z,4.83
2019-05-16T00:58:05.679Z,6.70
2019-05-16T01:00:50.330Z,6.68
2019-05-16T01:03:22.032Z,6.73
2019-05-16T01:05:53.401Z,6.70
2019-05-16T01:08:24.874Z,6.70
2019-05-16T01:10:58.686Z,6.74
2019-05-16T01:13:32.568Z,6.75
2019-05-16T01:16:04.043Z,6.79
2019-05-16T01:18:37.923Z,6.82
2019-05-16T01:21:09.200Z,6.80
2019-05-16T01:23:40.477Z,6.84
2019-05-16T01:26:11.886Z,6.86
2019-05-16T01:28:45.108Z,6.85
2019-05-16T01:31:19.038Z,6.84
2019-05-16T01:33:50.491Z,6.85
2019-05-16T01:36:33.349Z,6.83
2019-05-16T01:38:55.096Z,6.83
2019-05-16T01:41:29.251Z,6.84
2019-05-16T01:44:01.114Z,6.82
2019-05-16T01:46:32.517Z,6.74
2019-05-16T01:49:08.088Z,6.71
2019-05-16T01:51:39.913Z,6.71
2019-05-16T01:54:11.213Z,6.68
2019-05-16T01:56:44.381Z,6.73
2019-05-16T01:59:18.193Z,6.71
2019-05-16T02:01:49.888Z,6.70
2019-05-16T02:04:22.736Z,6.76
2019-05-16T02:06:55.012Z,6.71
2019-05-16T02:09:28.076Z,6.72
2019-05-16T02:11:59.379Z,6.79
2019-05-16T02:14:30.564Z,6.78
2019-05-16T02:17:01.878Z,6.74
2019-05-16T02:19:33.079Z,6.78
2019-05-16T02:22:08.941Z,6.78
2019-05-16T02:24:41.701Z,6.80
2019-05-16T02:27:14.915Z,6.84
2019-05-16T02:29:46.177Z,6.84
2019-05-16T02:32:17.652Z,6.82
2019-05-16T02:34:51.410Z,6.80
2019-05-16T02:37:29.246Z,6.83
2019-05-16T02:39:56.725Z,6.85
2019-05-16T02:42:31.093Z,6.90
2019-05-16T02:45:03.379Z,6.89
2019-05-16T02:47:46.855Z,6.88
2019-05-16T02:50:21.936Z,6.89
2019-05-16T02:52:52.574Z,6.87
2019-05-16T02:55:25.274Z,6.92
2019-05-16T02:57:57.019Z,6.89
2019-05-16T03:00:41.990Z,6.96
2019-05-16T03:03:11.913Z,6.97
2019-05-16T03:05:45.266Z,6.97
2019-05-16T03:08:21.023Z,6.93
2019-05-16T03:10:52.672Z,6.97
2019-05-16T03:13:24.593Z,6.95
2019-05-16T03:16:00.635Z,7.04
2019-05-16T03:18:32.515Z,7.03
2019-05-16T03:21:06.487Z,7.01
2019-05-16T03:23:41.696Z,7.07
2019-05-16T03:26:11.921Z,7.03
2019-05-16T03:28:46.318Z,7.03
2019-05-16T03:31:23.762Z,7.03
2019-05-16T03:33:58.870Z,7.11
2019-05-16T03:36:25.845Z,7.06
2019-05-16T03:38:57.270Z,7.08
2019-05-16T03:41:30.891Z,7.04
2019-05-16T03:44:01.722Z,7.05
2019-05-16T03:46:33.454Z,7.07
2019-05-16T03:49:06.168Z,7.09
2019-05-16T03:51:37.883Z,7.06
2019-05-16T03:54:12.503Z,7.07
2019-05-16T03:56:43.748Z,6.23
2019-05-16T03:59:16.618Z,7.06
2019-05-16T04:01:51.121Z,7.02
2019-05-16T04:04:22.459Z,7.01
2019-05-16T04:06:54.223Z,7.02
2019-05-16T04:09:25.695Z,7.04
2019-05-16T04:11:57.320Z,7.04
2019-05-16T04:14:30.931Z,7.08
2019-05-16T04:17:02.136Z,7.02
2019-05-16T04:19:33.832Z,7.02
2019-05-16T04:22:10.457Z,7.06
2019-05-16T04:24:43.895Z,7.00
2019-05-16T04:27:15.376Z,7.05
2019-05-16T04:29:47.117Z,7.06
2019-05-16T04:32:20.911Z,6.90
2019-05-16T04:34:52.269Z,6.95
2019-05-16T04:37:26.314Z,6.98
2019-05-16T04:40:01.324Z,6.89
2019-05-16T04:42:41.683Z,6.91
2019-05-16T04:45:16.705Z,6.97
2019-05-16T04:47:51.201Z,6.94
2019-05-16T04:50:23.134Z,6.97
2019-05-16T04:52:55.768Z,7.02
2019-05-16T04:55:31.678Z,6.99
2019-05-16T04:58:10.449Z,7.08
2019-05-16T05:00:42.006Z,7.11
2019-05-16T05:03:14.080Z,7.20
2019-05-16T05:05:46.304Z,7.04
2019-05-16T05:08:21.924Z,7.08
2019-05-16T05:10:52.461Z,7.20
2019-05-16T05:13:25.057Z,7.10
2019-05-16T05:16:02.037Z,7.15
2019-05-16T05:19:10.871Z,7.08
2019-05-16T05:21:42.802Z,7.07
2019-05-16T05:24:14.431Z,7.13
2019-05-16T05:26:46.345Z,7.10
2019-05-16T05:29:19.665Z,7.14
2019-05-16T05:31:55.047Z,7.10
2019-05-16T05:34:23.953Z,7.18
2019-05-16T05:36:55.497Z,7.25
2019-05-16T05:39:26.750Z,7.16
2019-05-16T05:42:00.247Z,7.27
2019-05-16T05:44:31.695Z,7.27
2019-05-16T05:47:03.013Z,7.31
2019-05-16T05:49:34.308Z,7.35
2019-05-16T05:52:06.236Z,7.43
2019-05-16T05:54:40.593Z,7.33
2019-05-16T05:57:10.618Z,7.43
2019-05-16T05:59:42.003Z,7.47
2019-05-16T06:02:14.327Z,7.48
2019-05-16T06:04:47.426Z,7.45
2019-05-16T06:07:20.583Z,7.49
2019-05-16T06:09:56.480Z,7.58
2019-05-16T06:12:26.717Z,7.50
2019-05-16T06:15:07.640Z,7.53
2019-05-16T06:17:41.661Z,7.59
2019-05-16T06:20:20.312Z,7.64
2019-05-16T06:22:52.067Z,7.56
2019-05-16T06:25:23.652Z,7.63
2019-05-16T06:27:55.027Z,7.65
2019-05-16T06:30:26.672Z,7.72
2019-05-16T06:32:59.706Z,7.88
2019-05-16T06:35:31.830Z,8.01
2019-05-16T06:38:03.393Z,8.18
2019-05-16T06:40:35.107Z,8.03
2019-05-16T06:43:06.716Z,8.17
2019-05-16T06:45:40.252Z,8.28
2019-05-16T06:48:10.981Z,8.42
2019-05-16T06:50:45.345Z,8.48
2019-05-16T06:53:16.798Z,8.30
2019-05-16T06:55:49.887Z,8.46
2019-05-16T06:58:22.472Z,8.47
2019-05-16T07:01:01.893Z,8.51
2019-05-16T07:03:32.104Z,8.43
2019-05-16T07:06:04.853Z,8.55
2019-05-16T07:08:36.503Z,8.45
2019-05-16T07:11:10.379Z,8.69
2019-05-16T07:13:42.424Z,8.93
2019-05-16T07:16:20.579Z,9.19
2019-05-16T07:18:51.790Z,9.01
2019-05-16T07:21:23.713Z,9.10
2019-05-16T07:24:00.172Z,8.90
2019-05-16T07:26:31.949Z,8.79
2019-05-16T07:29:04.066Z,8.81
2019-05-16T07:31:35.779Z,8.77
2019-05-16T07:34:10.195Z,8.76
2019-05-16T07:36:40.745Z,8.76
2019-05-16T07:39:12.658Z,8.95
2019-05-16T07:41:47.310Z,8.96
2019-05-16T07:44:20.875Z,9.11
2019-05-16T07:46:52.749Z,8.85
2019-05-16T07:49:24.294Z,8.92
2019-05-16T07:51:57.587Z,9.08
2019-05-16T07:54:34.066Z,9.20
2019-05-16T07:57:16.053Z,9.29
2019-05-16T07:59:40.499Z,9.39
2019-05-16T08:02:11.461Z,9.30
2019-05-16T08:04:45.044Z,9.63
2019-05-16T08:07:17.290Z,9.68
2019-05-16T08:09:50.951Z,9.93
2019-05-16T08:12:26.452Z,9.92
2019-05-16T08:14:56.589Z,9.61
2019-05-16T08:17:28.015Z,9.63
2019-05-16T08:20:00.354Z,9.63
2019-05-16T08:22:34.518Z,9.71
2019-05-16T08:25:16.841Z,7.71
2019-05-16T08:27:51.711Z,9.60
2019-05-16T08:30:23.008Z,9.52
2019-05-16T08:32:54.687Z,9.65
2019-05-16T08:35:26.083Z,9.77
2019-05-16T08:38:01.056Z,9.72
2019-05-16T08:40:59.658Z,9.63
2019-05-16T08:43:11.724Z,9.71
2019-05-16T08:45:41.941Z,9.80
2019-05-16T08:48:13.530Z,9.75
2019-05-16T08:50:53.878Z,9.71
2019-05-16T08:53:21.558Z,9.70
2019-05-16T08:55:51.786Z,9.74
2019-05-16T08:58:23.112Z,9.92
2019-05-16T09:00:55.775Z,9.76
2019-05-16T09:06:03.564Z,9.80
2019-05-16T09:08:35.084Z,9.84
2019-05-16T09:11:26.934Z,10.09
2019-05-16T09:13:39.214Z,10.44
2019-05-16T09:16:10.708Z,10.46
2019-05-16T09:18:32.824Z,9.76
2019-05-16T09:18:46.227Z,10.44
2019-05-16T09:21:17.984Z,10.62
2019-05-16T09:23:48.179Z,10.81
2019-05-16T09:26:20.004Z,10.69
2019-05-16T09:28:53.052Z,9.82
2019-05-16T09:31:27.260Z,10.73
2019-05-16T09:33:57.523Z,10.82
2019-05-16T09:36:29.066Z,11.17
2019-05-16T09:39:00.657Z,11.21
2019-05-16T09:41:46.336Z,10.93
2019-05-16T09:44:05.003Z,10.87
2019-05-16T09:46:37.644Z,10.56
2019-05-16T09:49:19.580Z,10.81
2019-05-16T09:51:42.018Z,11.21
2019-05-16T09:54:13.751Z,11.23
2019-05-16T09:56:47.858Z,11.00
2019-05-16T09:59:19.447Z,10.93
2019-05-16T10:01:50.744Z,10.74
2019-05-16T10:04:26.577Z,10.98
2019-05-16T10:06:59.965Z,11.12
2019-05-16T10:09:44.525Z,11.41
2019-05-16T10:12:14.809Z,11.58
2019-05-16T10:14:38.581Z,11.61
2019-05-16T10:17:10.091Z,11.22
2019-05-16T10:19:41.554Z,11.52
2019-05-16T10:22:17.043Z,11.81
2019-05-16T10:24:48.198Z,11.44
2019-05-16T10:27:19.827Z,11.38
2019-05-16T10:29:51.450Z,11.34
2019-05-16T10:32:22.916Z,11.56
2019-05-16T10:34:54.506Z,11.47
2019-05-16T10:37:26.840Z,11.64
2019-05-16T10:39:59.996Z,11.76
2019-05-16T10:42:42.394Z,11.69
2019-05-16T10:45:18.127Z,11.50
2019-05-16T10:47:51.196Z,11.57
2019-05-16T10:50:37.453Z,11.49
2019-05-16T10:53:32.602Z,11.73
2019-05-16T10:55:42.354Z,12.13
2019-05-16T10:58:13.938Z,11.82
2019-05-16T11:01:09.891Z,11.64
2019-05-16T11:03:18.617Z,11.57
2019-05-16T11:06:02.949Z,11.79
2019-05-16T11:08:23.562Z,11.91
2019-05-16T11:10:57.069Z,11.97
2019-05-16T11:13:28.316Z,12.14
2019-05-16T11:16:01.966Z,12.14
2019-05-16T11:18:33.619Z,12.45
2019-05-16T11:21:05.578Z,12.49
2019-05-16T11:23:37.439Z,12.02
2019-05-16T11:26:08.949Z,12.01
2019-05-16T11:28:40.518Z,12.22
2019-05-16T11:31:12.711Z,12.19
2019-05-16T11:33:44.177Z,12.46
2019-05-16T11:36:16.704Z,12.81
2019-05-16T11:38:50.704Z,13.39
2019-05-16T11:41:22.525Z,13.25
2019-05-16T11:43:56.759Z,12.94
2019-05-16T11:46:28.299Z,12.80
2019-05-16T11:49:02.524Z,12.43
2019-05-16T11:51:34.284Z,12.55
2019-05-16T11:54:08.007Z,13.23
2019-05-16T11:56:39.437Z,13.42
2019-05-16T11:59:11.600Z,13.55
2019-05-16T12:01:47.615Z,13.53
2019-05-16T12:04:19.585Z,13.69
2019-05-16T12:06:53.287Z,13.84
2019-05-16T12:09:32.256Z,13.46
2019-05-16T12:12:04.284Z,13.32
2019-05-16T12:14:36.736Z,13.12
2019-05-16T12:17:08.560Z,12.84
2019-05-16T12:19:44.028Z,13.05
2019-05-16T12:22:13.934Z,13.40
2019-05-16T12:24:47.577Z,13.71
2019-05-16T12:27:18.302Z,14.05
2019-05-16T12:29:54.823Z,13.65
2019-05-16T12:32:22.607Z,13.84
2019-05-16T12:34:53.878Z,14.88
2019-05-16T12:37:27.600Z,14.51
2019-05-16T12:39:59.368Z,13.92
2019-05-16T12:42:30.596Z,13.85
2019-05-16T12:45:14.727Z,13.39
2019-05-16T12:47:47.163Z,13.40
2019-05-16T12:50:20.296Z,13.81
2019-05-16T12:52:51.560Z,13.79
2019-05-16T12:55:27.118Z,13.66
2019-05-16T12:58:14.369Z,14.26
2019-05-16T13:00:44.004Z,14.86
2019-05-16T13:03:16.702Z,15.23
2019-05-16T13:05:49.311Z,15.00
2019-05-16T13:08:20.745Z,14.66
2019-05-16T13:10:52.259Z,14.77
2019-05-16T13:13:23.888Z,14.69
2019-05-16T13:15:55.245Z,14.71
2019-05-16T13:18:27.669Z,14.92
2019-05-16T13:20:59.497Z,15.29
2019-05-16T13:23:30.789Z,15.44
2019-05-16T13:26:02.261Z,15.42
2019-05-16T13:28:33.590Z,16.02
2019-05-16T13:31:07.688Z,15.73
2019-05-16T13:33:39.897Z,14.79
2019-05-16T13:36:11.988Z,14.91
2019-05-16T13:38:43.792Z,15.70
2019-05-16T13:41:18.008Z,15.93
2019-05-16T13:43:48.699Z,16.78
2019-05-16T13:46:22.039Z,17.43
2019-05-16T13:48:54.108Z,15.99
2019-05-16T13:51:26.647Z,15.34
2019-05-16T13:53:58.344Z,15.54
2019-05-16T13:56:29.893Z,16.62
2019-05-16T13:59:01.913Z,16.79
2019-05-16T14:01:33.741Z,17.17
2019-05-16T14:04:09.502Z,16.10
2019-05-16T14:06:41.677Z,15.47
2019-05-16T14:09:12.278Z,15.50
2019-05-16T14:11:46.219Z,16.51
2019-05-16T14:14:33.570Z,15.61
2019-05-16T14:16:52.527Z,15.18
2019-05-16T14:19:23.983Z,15.27
2019-05-16T14:21:56.963Z,14.35
2019-05-16T14:24:30.981Z,13.99
2019-05-16T14:27:02.397Z,14.37
2019-05-16T14:29:33.983Z,14.07
2019-05-16T14:32:09.817Z,14.23
2019-05-16T14:34:38.999Z,14.25
2019-05-16T14:37:10.360Z,14.37
2019-05-16T14:39:41.933Z,14.41
2019-05-16T14:42:13.454Z,14.30
2019-05-16T14:45:03.721Z,14.19
2019-05-16T14:47:19.647Z,14.37
2019-05-16T14:49:51.157Z,14.33
2019-05-16T14:52:26.972Z,14.41
2019-05-16T14:54:57.666Z,14.85
2019-05-16T14:57:29.551Z,15.78
2019-05-16T15:00:01.083Z,15.70
2019-05-16T15:02:43.307Z,15.27
2019-05-16T15:05:18.220Z,14.96
2019-05-16T15:07:50.412Z,15.21
2019-05-16T15:10:29.108Z,15.46
2019-05-16T15:13:00.993Z,15.62
2019-05-16T15:15:32.515Z,15.13
2019-05-16T15:18:08.478Z,15.06
2019-05-16T15:20:42.559Z,15.34
2019-05-16T15:23:17.570Z,15.82
2019-05-16T15:25:48.655Z,15.16
2019-05-16T15:28:27.682Z,14.83
2019-05-16T15:30:58.372Z,15.75
2019-05-16T15:33:30.122Z,16.41
2019-05-16T15:36:01.683Z,16.52
2019-05-16T15:38:33.397Z,17.11
2019-05-16T15:41:04.583Z,17.12
2019-05-16T15:43:36.857Z,16.81
2019-05-16T15:46:10.620Z,16.92
2019-05-16T15:48:42.409Z,16.64
2019-05-16T15:51:13.803Z,16.19
2019-05-16T15:53:46.260Z,16.46
2019-05-16T15:56:22.082Z,16.19
2019-05-16T15:58:53.334Z,16.24
2019-05-16T16:01:27.084Z,16.00
2019-05-16T16:04:09.045Z,15.73
2019-05-16T16:06:43.101Z,16.04
2019-05-16T16:09:17.335Z,16.26
2019-05-16T16:11:49.093Z,16.05
2019-05-16T16:14:36.796Z,15.75
2019-05-16T16:17:21.538Z,16.33
2019-05-16T16:19:54.452Z,16.87
2019-05-16T16:22:26.931Z,16.98
2019-05-16T16:25:13.122Z,16.37
2019-05-16T16:27:46.336Z,15.59
2019-05-16T16:30:18.814Z,15.54
2019-05-16T16:32:50.209Z,16.00
2019-05-16T16:35:21.481Z,15.90
2019-05-16T16:37:52.800Z,15.89
2019-05-16T16:40:26.556Z,15.96
2019-05-16T16:42:57.160Z,15.82
2019-05-16T16:45:28.651Z,15.82
2019-05-16T16:48:00.600Z,15.92
2019-05-16T16:50:32.370Z,16.00
2019-05-16T16:53:03.770Z,15.87
2019-05-16T16:55:37.025Z,15.77
2019-05-16T16:58:09.595Z,15.46
2019-05-16T17:00:41.253Z,15.55
2019-05-16T17:03:13.018Z,15.81
2019-05-16T17:05:46.523Z,16.22
2019-05-16T17:08:18.411Z,15.76
2019-05-16T17:10:57.719Z,15.86
2019-05-16T17:13:29.008Z,15.78
2019-05-16T17:16:00.643Z,15.50
2019-05-16T17:18:33.932Z,15.21
2019-05-16T17:21:07.962Z,15.41
2019-05-16T17:23:39.607Z,15.85
2019-05-16T17:26:11.167Z,15.93
2019-05-16T17:28:42.488Z,16.48
2019-05-16T17:31:16.569Z,16.21
2019-05-16T17:33:47.253Z,16.04
2019-05-16T17:36:18.646Z,15.70
2019-05-16T17:38:49.975Z,15.61
2019-05-16T17:41:21.562Z,15.10
2019-05-16T17:43:53.554Z,15.84
2019-05-16T17:46:34.831Z,15.48
2019-05-16T17:48:59.455Z,13.91
2019-05-16T17:51:31.212Z,13.85
2019-05-16T17:54:02.656Z,13.90
2019-05-16T17:56:34.198Z,14.68
2019-05-16T17:59:07.279Z,15.21
2019-05-16T18:01:39.065Z,15.10
2019-05-16T18:04:11.694Z,14.41
2019-05-16T18:06:47.273Z,14.84
2019-05-16T18:09:18.781Z,15.17
2019-05-16T18:11:50.377Z,15.03
2019-05-16T18:14:21.864Z,14.99
2019-05-16T18:16:59.636Z,15.24
2019-05-16T18:19:27.093Z,15.22
2019-05-16T18:21:59.423Z,15.21
2019-05-16T18:24:31.005Z,14.44
2019-05-16T18:27:02.404Z,14.56
2019-05-16T18:29:36.536Z,14.26
2019-05-16T18:32:09.938Z,14.06
2019-05-16T18:34:41.694Z,14.61
2019-05-16T18:37:13.686Z,14.58
2019-05-16T18:39:47.273Z,14.99
2019-05-16T18:42:19.259Z,15.08
2019-05-16T18:44:51.670Z,15.10
2019-05-16T18:47:26.925Z,15.37
2019-05-16T18:49:58.525Z,15.27
2019-05-16T18:52:30.147Z,15.06
2019-05-16T18:55:02.340Z,15.33
2019-05-16T18:57:44.264Z,15.28
2019-05-16T19:00:17.805Z,15.23
2019-05-16T19:02:51.271Z,15.34
2019-05-16T19:05:22.797Z,15.82
2019-05-16T19:07:56.337Z,16.11
2019-05-16T19:10:28.246Z,16.34
2019-05-16T19:12:59.965Z,16.47
2019-05-16T19:15:31.224Z,16.59
2019-05-16T19:18:02.470Z,16.49
2019-05-16T19:20:34.046Z,16.38
2019-05-16T19:23:07.347Z,16.47
2019-05-16T19:25:38.894Z,16.37
2019-05-16T19:28:10.262Z,16.03
2019-05-16T19:30:42.503Z,16.17
2019-05-16T19:33:14.319Z,16.24
2019-05-16T19:35:46.859Z,15.98
2019-05-16T19:38:19.794Z,15.74
2019-05-16T19:40:51.244Z,15.66
2019-05-16T19:43:26.482Z,15.77
2019-05-16T19:45:58.649Z,15.32
2019-05-16T19:48:31.165Z,15.56
2019-05-16T19:51:02.698Z,14.44
2019-05-16T19:53:36.357Z,14.36
2019-05-16T19:56:07.587Z,14.10
2019-05-16T19:58:40.248Z,14.37
2019-05-16T20:01:12.088Z,14.29
2019-05-16T20:03:43.675Z,13.72
2019-05-16T20:06:16.864Z,12.99
2019-05-16T20:08:50.280Z,12.80
2019-05-16T20:11:21.748Z,12.75
2019-05-16T20:13:53.615Z,12.87
2019-05-16T20:16:27.323Z,12.75
2019-05-16T20:18:58.311Z,12.71
2019-05-16T20:21:30.442Z,12.47
2019-05-16T20:24:02.425Z,12.48
2019-05-16T20:26:34.105Z,12.53
2019-05-16T20:29:17.105Z,12.39
2019-05-16T20:31:51.405Z,12.52
2019-05-16T20:34:22.995Z,12.40
2019-05-16T20:36:57.078Z,12.38
2019-05-16T20:39:28.318Z,12.39
2019-05-16T20:41:59.899Z,12.40
2019-05-16T20:44:32.501Z,12.53
2019-05-16T20:47:07.264Z,12.52
2019-05-16T20:49:38.624Z,12.48
2019-05-16T20:52:10.697Z,12.59
2019-05-16T20:54:42.442Z,12.52
2019-05-16T20:57:14.557Z,12.61
2019-05-16T20:59:49.061Z,12.59
2019-05-16T21:02:20.033Z,12.47
2019-05-16T21:04:51.672Z,12.66
2019-05-16T21:07:23.704Z,12.76
2019-05-16T21:09:56.997Z,12.62
2019-05-16T21:12:29.636Z,12.59
2019-05-16T21:15:02.104Z,12.23
2019-05-16T21:17:46.684Z,12.33
2019-05-16T21:20:18.832Z,12.50
2019-05-16T21:22:50.295Z,12.34
2019-05-16T21:25:26.272Z,12.14
2019-05-16T21:27:57.692Z,12.23
2019-05-16T21:30:30.302Z,12.42
2019-05-16T21:33:02.018Z,12.17
2019-05-16T21:35:33.516Z,12.50
2019-05-16T21:38:08.747Z,12.78
2019-05-16T21:40:38.625Z,13.37
2019-05-16T21:43:11.532Z,13.65
2019-05-16T21:45:43.294Z,13.96
2019-05-16T21:48:16.361Z,14.41
2019-05-16T21:50:48.855Z,14.72
2019-05-16T21:53:20.784Z,14.96
2019-05-16T21:55:52.462Z,15.15
2019-05-16T21:58:26.706Z,14.75
2019-05-16T22:00:59.577Z,12.87
2019-05-16T22:03:31.386Z,12.01
2019-05-16T22:06:02.720Z,12.20
2019-05-16T22:08:36.388Z,12.89
2019-05-16T22:11:07.625Z,13.27
2019-05-16T22:13:39.231Z,13.13
2019-05-16T22:16:10.828Z,13.90
2019-05-16T22:18:42.582Z,14.29
2019-05-16T22:21:16.364Z,13.16
2019-05-16T22:23:47.996Z,11.94
2019-05-16T22:26:19.994Z,11.56
2019-05-16T22:28:51.682Z,11.81
2019-05-16T22:31:24.261Z,12.03
2019-05-16T22:33:58.442Z,12.92
2019-05-16T22:36:30.054Z,13.44
2019-05-16T22:39:01.554Z,13.18
2019-05-16T22:41:33.091Z,13.19
2019-05-16T22:44:08.569Z,13.34
2019-05-16T22:46:37.647Z,13.19
2019-05-16T22:49:09.196Z,12.27
2019-05-16T22:51:40.947Z,12.71
2019-05-16T22:54:12.405Z,11.41
2019-05-16T22:56:43.748Z,10.99
2019-05-16T22:59:16.605Z,10.79
2019-05-16T23:01:49.020Z,10.77
2019-05-16T23:04:20.372Z,10.94
2019-05-16T23:06:56.453Z,11.49
2019-05-16T23:09:28.368Z,12.34
2019-05-16T23:12:00.053Z,11.61
2019-05-16T23:14:31.990Z,13.29
2019-05-16T23:17:06.496Z,13.32
2019-05-16T23:19:37.626Z,13.12
2019-05-16T23:22:09.109Z,12.71
2019-05-16T23:24:40.607Z,12.04
2019-05-16T23:27:12.258Z,10.97
2019-05-16T23:29:43.936Z,10.88
2019-05-16T23:32:15.589Z,10.75
2019-05-16T23:34:46.990Z,10.68
2019-05-16T23:37:18.303Z,10.79
2019-05-16T23:39:49.942Z,10.73
2019-05-16T23:42:23.714Z,11.20
2019-05-16T23:44:56.730Z,11.55
2019-05-16T23:47:29.608Z,12.26
2019-05-16T23:50:02.899Z,11.82
2019-05-16T23:52:44.287Z,12.05
2019-05-16T23:55:17.551Z,11.81
2019-05-16T23:57:48.931Z,11.52
